Haddon Township, New Jersey
Current Conditions -  °F | °C
As of 5:54 AM on Saturday 22 Nov 2014 (Local Time) from KPHL Reporting Station
Clear Clear  
Wind Chill: 17°   Ceiling: Unl
Heat Index: 24°   Visibility: 10mi
Dew Point: 15°   Wind: 6mph
Humidity: 69%   Direction: 250°WSW
Pressure: 30.53"   Gusts: NA
Location:  39.9079°N, 75.0838°W
Report Text: KPHL 221054Z 25005KT 10SM CLR M04/M09 A3053 RMK AO2 SLP337 T10441094 $
Loading
Personal Weather Stations






























Interactive Weather Map New forecast layout! Learn more

10-Day Weather Forecast

Advertisements
Track Severe Weather on mobile